createdAt,value
2022-11-16T00:00:40.628Z,7
2022-11-16T00:01:43.308Z,7
2022-11-16T00:02:46.221Z,7
2022-11-16T00:03:48.912Z,7
2022-11-16T00:04:51.519Z,5
2022-11-16T00:05:54.171Z,6
2022-11-16T00:06:56.869Z,7
2022-11-16T00:07:59.677Z,7
2022-11-16T00:09:02.320Z,6
2022-11-16T00:10:04.969Z,5
2022-11-16T00:11:07.600Z,4
2022-11-16T00:12:10.238Z,6
2022-11-16T00:13:12.853Z,6
2022-11-16T00:14:15.467Z,6
2022-11-16T00:15:18.131Z,6
2022-11-16T00:16:20.762Z,7
2022-11-16T00:17:23.396Z,8
2022-11-16T00:18:26.026Z,7
2022-11-16T00:19:28.645Z,6
2022-11-16T00:20:31.303Z,7
2022-11-16T00:21:33.971Z,7
2022-11-16T00:22:36.690Z,8
2022-11-16T00:23:39.381Z,8
2022-11-16T00:24:41.998Z,8
2022-11-16T00:25:44.634Z,9
2022-11-16T00:26:47.827Z,7
2022-11-16T00:27:50.415Z,10
2022-11-16T00:28:53.066Z,10
2022-11-16T00:29:55.894Z,10
2022-11-16T00:30:58.487Z,8
2022-11-16T00:32:01.113Z,10
2022-11-16T00:33:06.455Z,9
2022-11-16T00:34:08.821Z,11
2022-11-16T00:35:11.469Z,10
2022-11-16T00:36:14.088Z,10
2022-11-16T00:37:16.703Z,10
2022-11-16T00:38:19.410Z,9
2022-11-16T00:39:22.081Z,10
2022-11-16T00:40:24.718Z,10
2022-11-16T00:41:27.367Z,11
2022-11-16T00:42:30.014Z,11
2022-11-16T00:43:32.641Z,9
2022-11-16T00:44:35.283Z,10
2022-11-16T00:45:37.903Z,10
2022-11-16T00:46:40.534Z,11
2022-11-16T00:47:43.193Z,10
2022-11-16T00:48:45.833Z,10
2022-11-16T00:49:48.433Z,11
2022-11-16T00:50:51.047Z,10
2022-11-16T00:51:53.688Z,10
2022-11-16T00:52:56.342Z,11
2022-11-16T00:53:59.270Z,11
2022-11-16T00:55:01.882Z,11
2022-11-16T00:56:04.494Z,10
2022-11-16T00:57:07.142Z,11
2022-11-16T00:58:09.766Z,11
2022-11-16T00:59:12.397Z,11
2022-11-16T01:00:15.061Z,11
2022-11-16T01:01:17.717Z,11
2022-11-16T01:02:20.537Z,10
2022-11-16T01:03:23.203Z,11
2022-11-16T01:04:25.867Z,11
2022-11-16T01:05:28.479Z,11
2022-11-16T01:06:31.094Z,11
2022-11-16T01:07:33.813Z,11
2022-11-16T01:08:37.007Z,11
2022-11-16T01:09:43.440Z,13
2022-11-16T01:10:45.860Z,11
2022-11-16T01:11:48.617Z,11
2022-11-16T01:12:51.267Z,11
2022-11-16T01:13:53.917Z,10
2022-11-16T01:14:56.579Z,11
2022-11-16T01:15:59.191Z,13
2022-11-16T01:17:01.839Z,11
2022-11-16T01:18:04.433Z,10
2022-11-16T01:19:07.672Z,11
2022-11-16T01:20:10.264Z,10
2022-11-16T01:21:12.883Z,13
2022-11-16T01:22:19.251Z,11
2022-11-16T01:23:22.261Z,11
2022-11-16T01:24:24.880Z,10
2022-11-16T01:25:27.579Z,11
2022-11-16T01:26:30.223Z,13
2022-11-16T01:27:32.847Z,13
2022-11-16T01:28:35.872Z,14
2022-11-16T01:29:40.551Z,13
2022-11-16T01:30:43.117Z,13
2022-11-16T01:31:45.724Z,15
2022-11-16T01:32:48.365Z,17
2022-11-16T01:33:50.987Z,14
2022-11-16T01:34:53.613Z,14
2022-11-16T01:35:56.228Z,18
2022-11-16T01:36:58.843Z,14
2022-11-16T01:38:01.465Z,14
2022-11-16T01:39:04.262Z,13
2022-11-16T01:40:06.920Z,13
2022-11-16T01:41:09.616Z,11
2022-11-16T01:42:12.283Z,11
2022-11-16T01:43:14.927Z,12
2022-11-16T01:44:17.558Z,10
2022-11-16T01:45:20.141Z,10
2022-11-16T01:46:22.967Z,8
2022-11-16T01:47:25.588Z,8
2022-11-16T01:48:30.761Z,8
2022-11-16T01:49:34.998Z,7
2022-11-16T01:50:37.644Z,7
2022-11-16T01:51:40.420Z,7
2022-11-16T01:52:43.035Z,6
2022-11-16T01:53:45.680Z,6
2022-11-16T01:54:48.548Z,7
2022-11-16T01:55:51.176Z,5
2022-11-16T01:56:53.881Z,4
2022-11-16T01:57:56.523Z,6
2022-11-16T01:58:59.182Z,4
2022-11-16T02:00:01.817Z,4
2022-11-16T02:01:04.526Z,5
2022-11-16T02:02:07.401Z,7
2022-11-16T02:03:10.060Z,7
2022-11-16T02:04:12.676Z,8
2022-11-16T02:05:15.548Z,10
2022-11-16T02:06:18.183Z,11
2022-11-16T02:07:20.929Z,11
2022-11-16T02:08:23.906Z,11
2022-11-16T02:09:26.556Z,13
2022-11-16T02:10:29.180Z,14
2022-11-16T02:11:31.899Z,14
2022-11-16T02:12:34.592Z,13
2022-11-16T02:13:37.250Z,13
2022-11-16T02:14:39.874Z,13
2022-11-16T02:15:42.455Z,14
2022-11-16T02:16:45.333Z,12
2022-11-16T02:17:47.939Z,13
2022-11-16T02:18:50.610Z,13
2022-11-16T02:19:53.219Z,11
2022-11-16T02:20:55.842Z,10
2022-11-16T02:21:58.493Z,10
2022-11-16T02:23:01.123Z,11
2022-11-16T02:24:03.824Z,10
2022-11-16T02:25:06.623Z,10
2022-11-16T02:26:09.245Z,9
2022-11-16T02:27:11.895Z,10
2022-11-16T02:28:16.115Z,8
2022-11-16T02:29:18.616Z,8
2022-11-16T02:30:21.234Z,9
2022-11-16T02:31:24.088Z,8
2022-11-16T02:32:26.754Z,8
2022-11-16T02:33:29.342Z,8
2022-11-16T02:34:32.179Z,7
2022-11-16T02:35:34.806Z,7
2022-11-16T02:36:37.475Z,7
2022-11-16T02:37:40.113Z,8
2022-11-16T02:38:42.743Z,7
2022-11-16T02:39:45.364Z,6
2022-11-16T02:40:48.043Z,7
2022-11-16T02:41:50.651Z,7
2022-11-16T02:42:53.293Z,7
2022-11-16T02:43:56.007Z,6
2022-11-16T02:44:58.598Z,7
2022-11-16T02:46:01.242Z,6
2022-11-16T02:47:03.938Z,6
2022-11-16T02:48:06.590Z,5
2022-11-16T02:49:09.232Z,6
2022-11-16T02:50:11.870Z,6
2022-11-16T02:51:14.516Z,7
2022-11-16T02:52:17.148Z,7
2022-11-16T02:53:19.785Z,7
2022-11-16T02:54:22.429Z,7
2022-11-16T02:55:25.070Z,6
2022-11-16T02:56:27.721Z,7
2022-11-16T02:57:30.951Z,6
2022-11-16T02:58:33.962Z,6
2022-11-16T02:59:37.820Z,5
2022-11-16T03:00:40.612Z,5
2022-11-16T03:01:43.367Z,6
2022-11-16T03:02:46.007Z,6
2022-11-16T03:03:48.664Z,6
2022-11-16T03:04:51.284Z,6
2022-11-16T03:05:53.950Z,6
2022-11-16T03:06:57.229Z,4
2022-11-16T03:08:00.733Z,5
2022-11-16T03:09:03.413Z,7
2022-11-16T03:10:06.048Z,5
2022-11-16T03:11:08.708Z,5
2022-11-16T03:12:11.528Z,6
2022-11-16T03:13:14.347Z,5
2022-11-16T03:14:17.012Z,6
2022-11-16T03:15:19.726Z,6
2022-11-16T03:16:22.344Z,4
2022-11-16T03:17:24.992Z,4
2022-11-16T03:18:27.628Z,4
2022-11-16T03:19:30.266Z,4
2022-11-16T03:20:32.891Z,4
2022-11-16T03:21:35.502Z,4
2022-11-16T03:22:38.160Z,4
2022-11-16T03:23:40.833Z,4
2022-11-16T03:24:43.485Z,4
2022-11-16T03:25:46.308Z,5
2022-11-16T03:26:49.147Z,5
2022-11-16T03:27:51.771Z,4
2022-11-16T03:28:54.403Z,4
2022-11-16T03:29:57.067Z,4
2022-11-16T03:30:59.846Z,5
2022-11-16T03:32:03.083Z,4
2022-11-16T03:33:05.891Z,5
2022-11-16T03:34:20.009Z,5
2022-11-16T03:35:31.232Z,6
2022-11-16T03:36:33.804Z,6
2022-11-16T03:37:36.998Z,6
2022-11-16T03:38:39.625Z,6
2022-11-16T03:39:42.258Z,4
2022-11-16T03:40:44.891Z,5
2022-11-16T03:41:47.551Z,4
2022-11-16T03:42:50.304Z,4
2022-11-16T03:43:52.942Z,5
2022-11-16T03:44:55.593Z,4
2022-11-16T03:45:58.265Z,6
2022-11-16T03:47:00.979Z,6
2022-11-16T03:48:03.839Z,6
2022-11-16T03:49:06.519Z,6
2022-11-16T03:50:09.131Z,5
2022-11-16T03:51:11.778Z,5
2022-11-16T03:52:14.401Z,5
2022-11-16T03:53:19.945Z,5
2022-11-16T03:54:22.754Z,5
2022-11-16T03:55:25.382Z,5
2022-11-16T03:56:28.015Z,4
2022-11-16T03:57:30.677Z,4
2022-11-16T03:58:33.560Z,4
2022-11-16T03:59:37.693Z,5
2022-11-16T04:00:40.373Z,5
2022-11-16T04:01:44.836Z,4
2022-11-16T04:02:47.646Z,4
2022-11-16T04:03:50.325Z,4
2022-11-16T04:04:57.718Z,4
2022-11-16T04:06:02.630Z,4
2022-11-16T04:07:05.275Z,4
2022-11-16T04:08:08.052Z,6
2022-11-16T04:09:10.659Z,4
2022-11-16T04:10:13.300Z,4
2022-11-16T04:11:15.932Z,4
2022-11-16T04:12:18.601Z,4
2022-11-16T04:13:21.240Z,4
2022-11-16T04:14:24.861Z,4
2022-11-16T04:15:27.484Z,4
2022-11-16T04:16:30.110Z,4
2022-11-16T04:17:32.795Z,4
2022-11-16T04:18:35.833Z,4
2022-11-16T04:19:39.718Z,4
2022-11-16T04:20:42.363Z,4
2022-11-16T04:21:45.564Z,4
2022-11-16T04:22:48.273Z,4
2022-11-16T04:23:51.474Z,4
2022-11-16T04:24:54.084Z,4
2022-11-16T04:25:56.684Z,4
2022-11-16T04:26:59.317Z,4
2022-11-16T04:28:02.199Z,4
2022-11-16T04:29:04.832Z,4
2022-11-16T04:30:07.452Z,4
2022-11-16T04:31:10.096Z,4
2022-11-16T04:32:12.728Z,3
2022-11-16T04:33:15.422Z,4
2022-11-16T04:34:18.160Z,4
2022-11-16T04:35:20.793Z,4
2022-11-16T04:36:24.045Z,4
2022-11-16T04:37:26.665Z,4
2022-11-16T04:38:29.301Z,4
2022-11-16T04:39:31.951Z,4
2022-11-16T04:40:44.631Z,4
2022-11-16T04:41:46.857Z,4
2022-11-16T04:42:49.472Z,3
2022-11-16T04:43:52.560Z,3
2022-11-16T04:44:55.120Z,4
2022-11-16T04:45:57.766Z,4
2022-11-16T04:47:00.391Z,4
2022-11-16T04:48:03.030Z,4
2022-11-16T04:49:05.694Z,4
2022-11-16T04:50:08.395Z,4
2022-11-16T04:51:11.007Z,4
2022-11-16T04:52:13.644Z,4
2022-11-16T04:53:16.259Z,3
2022-11-16T04:54:18.915Z,4
2022-11-16T04:55:21.542Z,4
2022-11-16T04:56:24.144Z,4
2022-11-16T04:57:26.808Z,3
2022-11-16T04:58:29.443Z,3
2022-11-16T04:59:32.076Z,4
2022-11-16T05:00:34.919Z,3
2022-11-16T05:01:37.560Z,3
2022-11-16T05:02:40.291Z,3
2022-11-16T05:03:42.891Z,3
2022-11-16T05:04:45.544Z,4
2022-11-16T05:05:48.265Z,3
2022-11-16T05:06:50.925Z,4
2022-11-16T05:07:53.701Z,3
2022-11-16T05:08:56.330Z,3
2022-11-16T05:09:58.974Z,3
2022-11-16T05:11:01.606Z,4
2022-11-16T05:12:04.242Z,3
2022-11-16T05:13:06.927Z,3
2022-11-16T05:14:09.528Z,3
2022-11-16T05:15:12.140Z,4
2022-11-16T05:16:14.765Z,4
2022-11-16T05:17:17.397Z,4
2022-11-16T05:18:20.247Z,4
2022-11-16T05:19:22.849Z,4
2022-11-16T05:20:25.496Z,4
2022-11-16T05:21:28.173Z,4
2022-11-16T05:22:30.837Z,4
2022-11-16T05:23:33.499Z,3
2022-11-16T05:24:36.149Z,3
2022-11-16T05:25:38.779Z,3
2022-11-16T05:26:45.015Z,3
2022-11-16T05:27:52.981Z,3
2022-11-16T05:28:55.114Z,3
2022-11-16T05:32:14.069Z,4
2022-11-16T05:33:18.147Z,5
2022-11-16T05:35:31.342Z,4
2022-11-16T05:36:37.325Z,4
2022-11-16T05:37:39.855Z,3
2022-11-16T05:38:42.397Z,3
2022-11-16T05:41:05.690Z,3
2022-11-16T05:42:08.329Z,3
2022-11-16T05:43:12.851Z,3
2022-11-16T05:44:15.076Z,3
2022-11-16T05:45:30.299Z,3
2022-11-16T05:46:32.177Z,3
2022-11-16T05:47:39.047Z,3
2022-11-16T05:48:41.122Z,2
2022-11-16T05:49:43.713Z,3
2022-11-16T05:50:46.358Z,2
2022-11-16T05:51:53.623Z,4
2022-11-16T05:52:58.719Z,3
2022-11-16T05:54:01.337Z,3
2022-11-16T05:55:03.922Z,3
2022-11-16T05:56:08.361Z,3
2022-11-16T05:57:13.245Z,3
2022-11-16T05:58:15.924Z,3
2022-11-16T05:59:18.777Z,4
2022-11-16T06:00:27.996Z,4
2022-11-16T06:01:30.011Z,4
2022-11-16T06:02:32.629Z,4
2022-11-16T06:03:35.311Z,4
2022-11-16T06:04:38.236Z,8
2022-11-16T06:05:41.018Z,10
2022-11-16T06:06:43.641Z,8
2022-11-16T06:07:46.279Z,9
2022-11-16T06:08:51.409Z,5
2022-11-16T06:09:57.372Z,4
2022-11-16T06:10:59.738Z,4
2022-11-16T06:12:02.339Z,4
2022-11-16T06:13:04.972Z,4
2022-11-16T06:14:07.633Z,3
2022-11-16T06:15:10.261Z,3
2022-11-16T06:17:20.471Z,4
2022-11-16T06:18:36.435Z,3
2022-11-16T06:19:40.011Z,3
2022-11-16T06:20:42.590Z,3
2022-11-16T06:22:00.854Z,3
2022-11-16T06:23:06.673Z,4
2022-11-16T06:25:52.891Z,3
2022-11-16T06:26:55.549Z,4
2022-11-16T06:31:09.713Z,3
2022-11-16T06:32:12.375Z,3
2022-11-16T06:33:15.175Z,3
2022-11-16T06:34:18.205Z,3
2022-11-16T06:35:25.331Z,3
2022-11-16T06:36:27.447Z,3
2022-11-16T06:37:30.056Z,3
2022-11-16T06:38:38.158Z,3
2022-11-16T06:39:46.927Z,2
2022-11-16T06:40:49.608Z,2
2022-11-16T06:41:52.048Z,3
2022-11-16T06:42:58.946Z,3
2022-11-16T06:44:01.051Z,3
2022-11-16T06:45:13.704Z,1
2022-11-16T06:46:15.882Z,3
2022-11-16T06:47:27.783Z,3
2022-11-16T06:48:29.947Z,4
2022-11-16T06:49:33.159Z,3
2022-11-16T06:50:35.932Z,3
2022-11-16T06:51:38.552Z,2
2022-11-16T06:52:41.206Z,1
2022-11-16T06:53:44.056Z,1
2022-11-16T06:54:46.721Z,1
2022-11-16T06:55:54.855Z,1
2022-11-16T06:56:57.054Z,1
2022-11-16T06:58:05.194Z,2
2022-11-16T06:59:08.875Z,2
2022-11-16T07:00:11.302Z,3
2022-11-16T07:01:13.867Z,1
2022-11-16T07:02:16.782Z,1
2022-11-16T07:03:19.633Z,1
2022-11-16T07:04:22.302Z,1
2022-11-16T07:05:31.784Z,1
2022-11-16T07:06:34.647Z,1
2022-11-16T07:07:37.063Z,3
2022-11-16T07:08:39.933Z,2
2022-11-16T07:09:47.323Z,1
2022-11-16T07:10:59.017Z,1
2022-11-16T07:12:12.909Z,1
2022-11-16T07:13:15.199Z,1
2022-11-16T07:14:18.386Z,1
2022-11-16T07:15:20.959Z,1
2022-11-16T07:16:23.585Z,1
2022-11-16T07:17:31.772Z,1
2022-11-16T07:18:35.816Z,3
2022-11-16T07:19:39.554Z,4
2022-11-16T07:20:42.611Z,3
2022-11-16T07:21:45.480Z,2
2022-11-16T07:22:48.142Z,2
2022-11-16T07:23:53.099Z,2
2022-11-16T07:25:00.853Z,1
2022-11-16T07:26:03.047Z,1
2022-11-16T07:27:05.619Z,1
2022-11-16T07:28:14.810Z,1
2022-11-16T07:29:19.361Z,1
2022-11-16T07:30:21.940Z,1
2022-11-16T07:31:38.328Z,1
2022-11-16T07:32:40.783Z,1
2022-11-16T07:33:47.736Z,1
2022-11-16T07:34:50.203Z,1
2022-11-16T07:35:52.986Z,1
2022-11-16T07:36:56.152Z,2
2022-11-16T07:37:58.785Z,1
2022-11-16T07:39:01.415Z,1
2022-11-16T07:40:04.039Z,1
2022-11-16T07:41:06.758Z,1
2022-11-16T07:42:09.922Z,1
2022-11-16T07:43:17.931Z,1
2022-11-16T07:44:20.119Z,1
2022-11-16T07:45:28.290Z,1
2022-11-16T07:46:47.735Z,1
2022-11-16T07:47:50.915Z,1
2022-11-16T07:49:03.337Z,1
2022-11-16T07:50:13.565Z,2
2022-11-16T07:51:16.629Z,2
2022-11-16T07:52:27.929Z,3
2022-11-16T07:53:48.718Z,3
2022-11-16T07:55:17.979Z,3
2022-11-16T07:56:57.864Z,2
2022-11-16T07:58:04.432Z,3
2022-11-16T08:00:45.175Z,3
2022-11-16T08:01:47.789Z,3
2022-11-16T08:02:56.365Z,3
2022-11-16T08:04:00.109Z,2
2022-11-16T08:05:02.382Z,1
2022-11-16T08:06:10.637Z,1
2022-11-16T08:07:16.244Z,1
2022-11-16T08:08:19.325Z,1
2022-11-16T08:09:23.525Z,1
2022-11-16T08:10:31.329Z,1
2022-11-16T08:11:34.471Z,1
2022-11-16T08:12:44.932Z,1
2022-11-16T08:13:58.929Z,2
2022-11-16T08:15:07.034Z,3
2022-11-16T08:16:17.525Z,2
2022-11-16T08:17:19.545Z,3
2022-11-16T08:18:22.149Z,2
2022-11-16T08:19:24.762Z,3
2022-11-16T08:20:27.492Z,2
2022-11-16T08:21:30.382Z,1
2022-11-16T08:22:33.130Z,1
2022-11-16T08:23:35.900Z,1
2022-11-16T08:24:38.544Z,1
2022-11-16T08:25:41.195Z,1
2022-11-16T08:26:43.818Z,1
2022-11-16T08:27:46.491Z,1
2022-11-16T08:28:50.190Z,1
2022-11-16T08:29:52.768Z,1
2022-11-16T08:30:55.476Z,1
2022-11-16T08:31:58.145Z,1
2022-11-16T08:33:00.798Z,1
2022-11-16T08:34:03.482Z,1
2022-11-16T08:35:06.127Z,1
2022-11-16T08:36:13.730Z,1
2022-11-16T08:37:16.917Z,1
2022-11-16T08:38:19.635Z,2
2022-11-16T08:39:22.409Z,3
2022-11-16T08:40:25.070Z,2
2022-11-16T08:41:27.747Z,3
2022-11-16T08:42:31.085Z,2
2022-11-16T08:43:33.694Z,3
2022-11-16T08:44:36.380Z,1
2022-11-16T08:45:39.081Z,1
2022-11-16T08:46:41.767Z,1
2022-11-16T08:47:44.473Z,2
2022-11-16T08:48:48.308Z,2
2022-11-16T08:49:51.396Z,2
2022-11-16T08:51:16.218Z,1
2022-11-16T08:52:15.965Z,2
2022-11-16T08:53:18.628Z,3
2022-11-16T08:54:21.798Z,3
2022-11-16T08:55:24.582Z,2
2022-11-16T08:56:27.441Z,3
2022-11-16T08:57:30.271Z,2
2022-11-16T08:58:33.223Z,3
2022-11-16T08:59:37.293Z,3
2022-11-16T09:00:39.943Z,3
2022-11-16T09:01:42.663Z,3
2022-11-16T09:02:45.544Z,2
2022-11-16T09:03:48.685Z,3
2022-11-16T09:04:51.559Z,3
2022-11-16T09:05:54.277Z,2
2022-11-16T09:06:57.029Z,3
2022-11-16T09:07:59.993Z,3
2022-11-16T09:09:02.836Z,3
2022-11-16T09:10:06.817Z,2
2022-11-16T09:11:10.352Z,2
2022-11-16T09:12:12.963Z,3
2022-11-16T09:13:15.568Z,3
2022-11-16T09:14:18.462Z,3
2022-11-16T09:15:21.075Z,2
2022-11-16T09:16:23.866Z,3
2022-11-16T09:17:26.591Z,3
2022-11-16T09:18:29.455Z,3
2022-11-16T09:19:32.096Z,3
2022-11-16T09:20:36.185Z,3
2022-11-16T09:21:39.073Z,3
2022-11-16T09:22:42.010Z,3
2022-11-16T09:23:44.925Z,4
2022-11-16T09:24:47.759Z,5
2022-11-16T09:25:50.515Z,4
2022-11-16T09:26:53.319Z,3
2022-11-16T09:27:55.995Z,3
2022-11-16T09:28:58.657Z,2
2022-11-16T09:30:01.377Z,3
2022-11-16T09:31:04.174Z,3
2022-11-16T09:32:06.936Z,3
2022-11-16T09:33:09.629Z,3
2022-11-16T09:34:12.314Z,3
2022-11-16T09:35:14.940Z,2
2022-11-16T09:36:17.905Z,3
2022-11-16T09:37:20.534Z,2
2022-11-16T09:38:34.814Z,3
2022-11-16T09:39:45.096Z,3
2022-11-16T09:40:47.810Z,3
2022-11-16T09:41:50.723Z,3
2022-11-16T09:42:53.515Z,3
2022-11-16T09:43:56.183Z,3
2022-11-16T09:44:58.810Z,3
2022-11-16T09:46:01.504Z,3
2022-11-16T09:47:04.188Z,3
2022-11-16T09:48:06.867Z,3
2022-11-16T09:49:17.075Z,3
2022-11-16T09:50:20.263Z,3
2022-11-16T09:51:22.931Z,3
2022-11-16T09:52:25.599Z,3
2022-11-16T09:53:28.282Z,3
2022-11-16T09:54:34.479Z,2
2022-11-16T09:55:36.910Z,3
2022-11-16T09:56:39.594Z,3
2022-11-16T09:57:42.452Z,3
2022-11-16T09:58:45.264Z,3
2022-11-16T09:59:47.911Z,3
2022-11-16T10:00:50.650Z,3
2022-11-16T10:01:53.502Z,2
2022-11-16T10:02:56.183Z,3
2022-11-16T10:04:08.871Z,3
2022-11-16T10:05:11.107Z,3
2022-11-16T10:06:13.962Z,2
2022-11-16T10:07:16.648Z,3
2022-11-16T10:08:19.650Z,4
2022-11-16T10:09:22.287Z,4
2022-11-16T10:10:24.948Z,4
2022-11-16T10:11:27.628Z,5
2022-11-16T10:12:35.797Z,4
2022-11-16T10:13:38.396Z,13
2022-11-16T10:14:41.112Z,18
2022-11-16T10:15:43.791Z,11
2022-11-16T10:16:49.763Z,53
2022-11-16T10:17:52.286Z,18
2022-11-16T10:18:58.491Z,65
2022-11-16T10:20:00.915Z,21
2022-11-16T10:21:03.732Z,6
2022-11-16T10:22:06.421Z,3
2022-11-16T10:23:09.115Z,3
2022-11-16T10:24:11.826Z,2
2022-11-16T10:25:14.538Z,3
2022-11-16T10:26:17.868Z,3
2022-11-16T10:27:22.085Z,3
2022-11-16T10:28:24.999Z,3
2022-11-16T10:29:28.051Z,3
2022-11-16T10:30:30.981Z,3
2022-11-16T10:31:33.778Z,3
2022-11-16T10:32:36.575Z,3
2022-11-16T10:33:39.390Z,3
2022-11-16T10:34:42.208Z,3
2022-11-16T10:35:45.183Z,3
2022-11-16T10:36:47.946Z,3
2022-11-16T10:37:50.697Z,3
2022-11-16T10:38:53.450Z,4
2022-11-16T10:39:56.063Z,3
2022-11-16T10:40:58.666Z,3
2022-11-16T10:42:06.196Z,3
2022-11-16T10:43:10.214Z,3
2022-11-16T10:44:12.871Z,4
2022-11-16T10:45:15.584Z,3
2022-11-16T10:46:18.289Z,3
2022-11-16T10:47:20.933Z,2
2022-11-16T10:48:23.787Z,3
2022-11-16T10:49:26.681Z,3
2022-11-16T10:50:29.286Z,3
2022-11-16T10:51:31.895Z,3
2022-11-16T10:52:34.511Z,3
2022-11-16T10:53:37.338Z,3
2022-11-16T10:54:44.159Z,2
2022-11-16T10:55:47.028Z,3
2022-11-16T10:56:49.749Z,3
2022-11-16T10:57:52.381Z,3
2022-11-16T10:58:55.034Z,3
2022-11-16T10:59:57.780Z,2
2022-11-16T11:01:00.592Z,2
2022-11-16T11:02:03.627Z,3
2022-11-16T11:03:06.837Z,3
2022-11-16T11:04:09.559Z,2
2022-11-16T11:05:12.483Z,2
2022-11-16T11:06:15.115Z,3
2022-11-16T11:07:17.864Z,1
2022-11-16T11:08:20.687Z,2
2022-11-16T11:09:23.354Z,2
2022-11-16T11:10:28.883Z,2
2022-11-16T11:11:31.375Z,3
2022-11-16T11:12:34.027Z,3
2022-11-16T11:13:36.990Z,2
2022-11-16T11:14:39.880Z,3
2022-11-16T11:15:42.615Z,3
2022-11-16T11:16:45.291Z,3
2022-11-16T11:17:48.065Z,3
2022-11-16T11:18:50.686Z,1
2022-11-16T11:19:53.307Z,1
2022-11-16T11:20:55.971Z,2
2022-11-16T11:21:58.614Z,2
2022-11-16T11:23:01.254Z,3
2022-11-16T11:24:29.581Z,3
2022-11-16T11:25:25.798Z,2
2022-11-16T11:26:36.412Z,3
2022-11-16T11:27:39.768Z,1
2022-11-16T11:28:42.370Z,2
2022-11-16T11:29:45.006Z,4
2022-11-16T11:30:47.802Z,3
2022-11-16T11:31:50.633Z,2
2022-11-16T11:32:53.367Z,2
2022-11-16T11:33:56.012Z,2
2022-11-16T11:34:58.675Z,2
2022-11-16T11:36:01.341Z,1
2022-11-16T11:37:03.988Z,1
2022-11-16T11:38:08.133Z,3
2022-11-16T11:39:11.180Z,2
2022-11-16T11:40:14.085Z,3
2022-11-16T11:41:16.731Z,2
2022-11-16T11:42:19.367Z,2
2022-11-16T11:43:22.041Z,2
2022-11-16T11:44:24.865Z,3
2022-11-16T11:45:27.567Z,3
2022-11-16T11:46:47.496Z,1
2022-11-16T11:47:59.942Z,1
2022-11-16T11:49:02.965Z,3
2022-11-16T11:50:05.553Z,2
2022-11-16T11:51:08.192Z,1
2022-11-16T11:52:11.022Z,1
2022-11-16T11:53:14.593Z,3
2022-11-16T11:54:17.229Z,3
2022-11-16T11:55:19.856Z,3
2022-11-16T11:56:22.484Z,2
2022-11-16T11:57:25.128Z,2
2022-11-16T11:58:27.762Z,3
2022-11-16T11:59:30.416Z,4
2022-11-16T12:00:33.105Z,3
2022-11-16T12:01:35.870Z,3
2022-11-16T12:02:38.560Z,2
2022-11-16T12:03:41.547Z,4
2022-11-16T12:04:44.198Z,2
2022-11-16T12:05:46.851Z,3
2022-11-16T12:06:49.769Z,3
2022-11-16T12:07:52.605Z,3
2022-11-16T12:08:55.264Z,3
2022-11-16T12:09:57.929Z,3
2022-11-16T12:11:00.593Z,2
2022-11-16T12:12:03.241Z,3
2022-11-16T12:13:05.880Z,3
2022-11-16T12:14:08.491Z,3
2022-11-16T12:15:21.148Z,3
2022-11-16T12:16:23.404Z,3
2022-11-16T12:17:26.146Z,3
2022-11-16T12:18:28.857Z,3
2022-11-16T12:19:31.615Z,3
2022-11-16T12:20:34.387Z,3
2022-11-16T12:21:37.028Z,3
2022-11-16T12:22:39.659Z,3
2022-11-16T12:23:42.320Z,3
2022-11-16T12:24:44.969Z,3
2022-11-16T12:25:47.610Z,3
2022-11-16T12:26:50.257Z,3
2022-11-16T12:27:52.912Z,3
2022-11-16T12:28:55.570Z,3
2022-11-16T12:29:58.209Z,3
2022-11-16T12:31:00.836Z,3
2022-11-16T12:32:03.482Z,3
2022-11-16T12:33:06.424Z,3
2022-11-16T12:34:09.038Z,3
2022-11-16T12:35:11.886Z,2
2022-11-16T12:36:14.591Z,3
2022-11-16T12:37:17.824Z,3
2022-11-16T12:38:25.990Z,3
2022-11-16T12:39:28.804Z,4
2022-11-16T12:40:31.429Z,3
2022-11-16T12:41:34.047Z,3
2022-11-16T12:42:36.691Z,3
2022-11-16T12:43:39.336Z,3
2022-11-16T12:44:44.600Z,3
2022-11-16T12:45:47.801Z,3
2022-11-16T12:46:50.434Z,3
2022-11-16T12:47:53.076Z,3
2022-11-16T12:48:55.825Z,3
2022-11-16T12:49:58.446Z,3
2022-11-16T12:51:03.863Z,3
2022-11-16T12:52:09.499Z,3
2022-11-16T12:53:18.961Z,3
2022-11-16T12:54:22.969Z,3
2022-11-16T12:55:30.470Z,3
2022-11-16T12:56:33.156Z,3
2022-11-16T12:57:35.793Z,3
2022-11-16T12:58:45.915Z,3
2022-11-16T12:59:50.361Z,3
2022-11-16T13:00:53.910Z,3
2022-11-16T13:02:04.287Z,3
2022-11-16T13:03:06.558Z,2
2022-11-16T13:04:09.320Z,3
2022-11-16T13:05:11.936Z,3
2022-11-16T13:06:14.717Z,3
2022-11-16T13:07:17.485Z,3
2022-11-16T13:08:20.309Z,3
2022-11-16T13:09:23.445Z,3
2022-11-16T13:10:26.098Z,3
2022-11-16T13:11:28.725Z,3
2022-11-16T13:12:31.346Z,2
2022-11-16T13:13:36.608Z,1
2022-11-16T13:14:39.800Z,2
2022-11-16T13:15:42.425Z,3
2022-11-16T13:16:45.335Z,4
2022-11-16T13:17:47.970Z,3
2022-11-16T13:18:50.597Z,3
2022-11-16T13:19:53.308Z,4
2022-11-16T13:20:55.985Z,4
2022-11-16T13:21:58.703Z,3
2022-11-16T13:23:01.366Z,3
2022-11-16T13:24:04.003Z,3
2022-11-16T13:25:06.737Z,3
2022-11-16T13:26:15.380Z,2
2022-11-16T13:27:17.773Z,3
2022-11-16T13:28:20.398Z,3
2022-11-16T13:29:23.053Z,3
2022-11-16T13:30:29.230Z,3
2022-11-16T13:31:31.637Z,3
2022-11-16T13:32:34.298Z,3
2022-11-16T13:33:36.915Z,3
2022-11-16T13:34:39.553Z,3
2022-11-16T13:35:42.873Z,3
2022-11-16T13:36:46.064Z,3
2022-11-16T13:37:48.766Z,4
2022-11-16T13:38:51.689Z,3
2022-11-16T13:39:57.823Z,3
2022-11-16T13:41:00.270Z,3
2022-11-16T13:42:14.406Z,3
2022-11-16T13:43:16.630Z,3
2022-11-16T13:44:19.284Z,3
2022-11-16T13:45:27.501Z,3
2022-11-16T13:46:54.573Z,3
2022-11-16T13:47:54.012Z,4
2022-11-16T13:48:56.601Z,4
2022-11-16T13:50:02.714Z,4
2022-11-16T13:51:06.171Z,3
2022-11-16T13:52:22.990Z,3
2022-11-16T13:54:52.883Z,3
2022-11-16T13:55:58.702Z,3
2022-11-16T13:57:01.291Z,2
2022-11-16T13:58:03.904Z,3
2022-11-16T13:59:06.529Z,3
2022-11-16T14:00:15.158Z,4
2022-11-16T14:01:17.559Z,3
2022-11-16T14:02:23.856Z,3
2022-11-16T14:03:26.240Z,4
2022-11-16T14:04:32.454Z,3
2022-11-16T14:05:38.626Z,3
2022-11-16T14:06:41.135Z,3
2022-11-16T14:07:43.750Z,3
2022-11-16T14:08:46.599Z,3
2022-11-16T14:09:49.264Z,2
2022-11-16T14:10:51.992Z,3
2022-11-16T14:11:54.615Z,3
2022-11-16T14:12:57.252Z,3
2022-11-16T14:13:59.898Z,3
2022-11-16T14:15:03.874Z,3
2022-11-16T14:16:06.806Z,2
2022-11-16T14:17:09.440Z,3
2022-11-16T14:18:12.082Z,3
2022-11-16T14:19:14.936Z,4
2022-11-16T14:20:22.138Z,3
2022-11-16T14:21:24.964Z,4
2022-11-16T14:22:27.738Z,4
2022-11-16T14:23:30.476Z,3
2022-11-16T14:24:33.588Z,3
2022-11-16T14:25:36.193Z,3
2022-11-16T14:26:38.951Z,3
2022-11-16T14:27:41.576Z,3
2022-11-16T14:28:44.183Z,2
2022-11-16T14:29:48.421Z,2
2022-11-16T14:30:51.774Z,2
2022-11-16T14:31:54.395Z,4
2022-11-16T14:32:57.090Z,3
2022-11-16T14:33:59.721Z,2
2022-11-16T14:35:02.320Z,2
2022-11-16T14:36:04.973Z,3
2022-11-16T14:37:07.575Z,3
2022-11-16T14:38:10.273Z,2
2022-11-16T14:39:12.919Z,3
2022-11-16T14:40:15.601Z,3
2022-11-16T14:41:18.487Z,4
2022-11-16T14:42:21.147Z,4
2022-11-16T14:43:23.794Z,3
2022-11-16T14:44:27.414Z,3
2022-11-16T14:45:30.301Z,3
2022-11-16T14:46:32.923Z,3
2022-11-16T14:47:36.080Z,2
2022-11-16T14:48:38.682Z,4
2022-11-16T14:49:41.314Z,3
2022-11-16T14:50:43.980Z,3
2022-11-16T14:51:46.632Z,3
2022-11-16T14:52:49.249Z,3
2022-11-16T14:53:52.138Z,3
2022-11-16T14:54:54.775Z,3
2022-11-16T14:55:57.599Z,3
2022-11-16T14:57:00.226Z,1
2022-11-16T14:58:02.933Z,2
2022-11-16T14:59:05.575Z,2
2022-11-16T15:00:08.837Z,3
2022-11-16T15:01:11.928Z,2
2022-11-16T15:02:14.547Z,3
2022-11-16T15:03:17.219Z,3
2022-11-16T15:04:20.007Z,3
2022-11-16T15:05:22.674Z,3
2022-11-16T15:06:25.356Z,3
2022-11-16T15:07:27.986Z,3
2022-11-16T15:08:30.822Z,3
2022-11-16T15:09:33.580Z,3
2022-11-16T15:10:36.183Z,3
2022-11-16T15:11:39.053Z,3
2022-11-16T15:12:41.704Z,3
2022-11-16T15:13:44.512Z,2
2022-11-16T15:14:47.221Z,3
2022-11-16T15:15:49.794Z,3
2022-11-16T15:16:52.469Z,3
2022-11-16T15:17:55.355Z,3
2022-11-16T15:18:57.968Z,2
2022-11-16T15:20:00.555Z,1
2022-11-16T15:21:03.200Z,1
2022-11-16T15:22:06.065Z,3
2022-11-16T15:23:08.715Z,2
2022-11-16T15:25:36.852Z,3
2022-11-16T15:26:39.162Z,2
2022-11-16T15:27:41.980Z,3
2022-11-16T15:28:49.847Z,3
2022-11-16T15:29:52.684Z,3
2022-11-16T15:30:55.294Z,3
2022-11-16T15:31:57.930Z,3
2022-11-16T15:33:00.569Z,3
2022-11-16T15:34:03.184Z,3
2022-11-16T15:35:05.883Z,3
2022-11-16T15:36:08.510Z,3
2022-11-16T15:37:21.135Z,3
2022-11-16T15:38:23.338Z,3
2022-11-16T15:39:25.939Z,4
2022-11-16T15:40:28.582Z,3
2022-11-16T15:41:31.225Z,3
2022-11-16T15:42:33.852Z,4
2022-11-16T15:43:44.987Z,4
2022-11-16T15:44:58.964Z,4
2022-11-16T15:46:01.660Z,3
2022-11-16T15:47:04.258Z,4
2022-11-16T15:48:06.856Z,3
2022-11-16T15:49:09.487Z,3
2022-11-16T15:50:12.108Z,3
2022-11-16T15:51:14.744Z,2
2022-11-16T15:52:20.861Z,3